Terminal Aerodrome Forecast
Issued by NWS

Home | Current Version | Previous Version | Text Only | Print | Product List | Glossary On
Versions: 1 2 3 4 5 6 7 8 9 10 11 12 13 14 15 16 17 18 19 20 21 22
985
FTUS43 KDVN 201338 AAA
TAFBRL
TAF AMD
KBRL 201338Z 2014/2112 14011KT 2SM BR BKN008
      TEMPO 2014/2016 1SM BR BKN004
     FM201700 15013G20KT 5SM BR BKN020
     FM202200 16011KT 4SM SHRA VCTS BKN035CB
     FM210300 22008KT 4SM BR BKN025
     FM210800 26007KT 6SM BR BKN050=

USA.gov is the U.S. government's official web portal to all federal, state and local government web resources and services.